sensor_id;sensor_type;location;lat;lon;timestamp;pressure;altitude;pressure_sealevel;temperature;humidity
10652;BME280;5374;42.742;23.266;2023-03-19T00:00:40;96032.03;;;2.53;67.91
10652;BME280;5374;42.742;23.266;2023-03-19T00:03:28;96027.97;;;2.51;67.96
10652;BME280;5374;42.742;23.266;2023-03-19T00:06:16;96039.66;;;2.48;68.07
10652;BME280;5374;42.742;23.266;2023-03-19T00:09:03;96031.16;;;2.46;68.23
10652;BME280;5374;42.742;23.266;2023-03-19T00:11:50;96032.53;;;2.42;68.19
10652;BME280;5374;42.742;23.266;2023-03-19T00:14:37;95892.59;;;1.50;68.70
10652;BME280;5374;42.742;23.266;2023-03-19T00:17:25;96027.00;;;2.37;68.52
10652;BME280;5374;42.742;23.266;2023-03-19T00:20:13;96026.75;;;2.32;68.42
10652;BME280;5374;42.742;23.266;2023-03-19T00:23:02;96022.88;;;2.28;68.66
10652;BME280;5374;42.742;23.266;2023-03-19T00:25:50;96012.31;;;2.21;68.96
10652;BME280;5374;42.742;23.266;2023-03-19T00:28:37;96013.13;;;2.22;68.92
10652;BME280;5374;42.742;23.266;2023-03-19T00:31:25;96014.50;;;2.18;68.97
10652;BME280;5374;42.742;23.266;2023-03-19T00:34:14;96002.03;;;2.05;69.24
10652;BME280;5374;42.742;23.266;2023-03-19T00:37:04;96008.91;;;2.06;69.66
10652;BME280;5374;42.742;23.266;2023-03-19T00:39:56;96008.47;;;2.02;69.49
10652;BME280;5374;42.742;23.266;2023-03-19T00:42:44;96002.34;;;1.95;69.57
10652;BME280;5374;42.742;23.266;2023-03-19T00:45:31;96011.53;;;1.91;69.56
10652;BME280;5374;42.742;23.266;2023-03-19T00:48:18;96000.06;;;1.92;69.25
10652;BME280;5374;42.742;23.266;2023-03-19T00:51:07;95982.75;;;1.77;69.39
10652;BME280;5374;42.742;23.266;2023-03-19T00:53:56;95967.31;;;1.67;69.28
10652;BME280;5374;42.742;23.266;2023-03-19T00:56:43;95989.25;;;1.81;69.82
10652;BME280;5374;42.742;23.266;2023-03-19T00:59:32;95988.81;;;1.77;69.69
10652;BME280;5374;42.742;23.266;2023-03-19T01:02:19;95985.56;;;1.75;69.70
10652;BME280;5374;42.742;23.266;2023-03-19T01:05:07;95961.16;;;1.60;69.94
10652;BME280;5374;42.742;23.266;2023-03-19T01:07:54;95976.16;;;1.66;70.17
10652;BME280;5374;42.742;23.266;2023-03-19T01:10:43;95983.47;;;1.70;70.17
10652;BME280;5374;42.742;23.266;2023-03-19T01:13:30;95982.19;;;1.66;70.34
10652;BME280;5374;42.742;23.266;2023-03-19T01:16:18;95978.13;;;1.64;70.77
10652;BME280;5374;42.742;23.266;2023-03-19T01:19:05;95974.88;;;1.62;70.53
10652;BME280;5374;42.742;23.266;2023-03-19T01:21:52;95983.72;;;1.61;70.33
10652;BME280;5374;42.742;23.266;2023-03-19T01:24:39;95975.34;;;1.51;70.44
10652;BME280;5374;42.742;23.266;2023-03-19T01:27:31;95977.97;;;1.51;70.56
10652;BME280;5374;42.742;23.266;2023-03-19T01:30:18;95977.50;;;1.47;70.76
10652;BME280;5374;42.742;23.266;2023-03-19T01:33:09;95981.75;;;1.48;70.45
10652;BME280;5374;42.742;23.266;2023-03-19T01:35:56;95968.91;;;1.38;70.63
10652;BME280;5374;42.742;23.266;2023-03-19T01:38:47;95975.06;;;1.46;70.65
10652;BME280;5374;42.742;23.266;2023-03-19T01:41:34;96003.69;;;1.47;70.94
10652;BME280;5374;42.742;23.266;2023-03-19T01:44:25;95976.94;;;1.37;71.20
10652;BME280;5374;42.742;23.266;2023-03-19T01:47:15;95968.66;;;1.33;71.12
10652;BME280;5374;42.742;23.266;2023-03-19T01:50:04;95988.16;;;1.46;71.24
10652;BME280;5374;42.742;23.266;2023-03-19T01:52:52;95986.34;;;1.46;71.17
10652;BME280;5374;42.742;23.266;2023-03-19T01:55:39;95977.22;;;1.42;71.15
10652;BME280;5374;42.742;23.266;2023-03-19T01:58:27;95959.56;;;1.29;71.35
10652;BME280;5374;42.742;23.266;2023-03-19T02:01:16;95974.97;;;1.39;71.75
10652;BME280;5374;42.742;23.266;2023-03-19T02:04:06;95985.59;;;1.37;72.03
10652;BME280;5374;42.742;23.266;2023-03-19T02:06:54;95977.75;;;1.37;72.15
10652;BME280;5374;42.742;23.266;2023-03-19T02:09:42;95988.97;;;1.31;72.59
10652;BME280;5374;42.742;23.266;2023-03-19T02:12:30;95970.91;;;1.22;72.53
10652;BME280;5374;42.742;23.266;2023-03-19T02:15:17;95971.81;;;1.29;72.71
10652;BME280;5374;42.742;23.266;2023-03-19T02:18:08;95978.03;;;1.28;72.81
10652;BME280;5374;42.742;23.266;2023-03-19T02:21:00;95953.03;;;1.11;72.89
10652;BME280;5374;42.742;23.266;2023-03-19T02:23:53;95970.44;;;1.18;73.13
10652;BME280;5374;42.742;23.266;2023-03-19T02:26:45;95991.66;;;1.23;73.34
10652;BME280;5374;42.742;23.266;2023-03-19T02:29:33;95979.19;;;1.25;73.39
10652;BME280;5374;42.742;23.266;2023-03-19T02:32:21;95991.66;;;1.23;73.04
10652;BME280;5374;42.742;23.266;2023-03-19T02:35:08;95943.25;;;0.90;73.17
10652;BME280;5374;42.742;23.266;2023-03-19T02:37:55;95985.06;;;1.13;73.78
10652;BME280;5374;42.742;23.266;2023-03-19T02:40:45;95995.31;;;1.14;73.75
10652;BME280;5374;42.742;23.266;2023-03-19T02:43:38;95992.91;;;1.13;73.29
10652;BME280;5374;42.742;23.266;2023-03-19T02:46:28;95995.69;;;1.11;73.27
10652;BME280;5374;42.742;23.266;2023-03-19T02:49:16;96007.50;;;1.07;73.07
10652;BME280;5374;42.742;23.266;2023-03-19T02:52:04;95979.47;;;0.93;72.96
10652;BME280;5374;42.742;23.266;2023-03-19T02:54:51;95999.34;;;1.02;73.02
10652;BME280;5374;42.742;23.266;2023-03-19T02:57:38;96041.19;;;1.02;72.74
10652;BME280;5374;42.742;23.266;2023-03-19T03:00:27;95966.25;;;0.72;72.88
10652;BME280;5374;42.742;23.266;2023-03-19T03:03:14;95966.91;;;0.74;73.05
10652;BME280;5374;42.742;23.266;2023-03-19T03:06:02;95995.91;;;0.87;73.10
10652;BME280;5374;42.742;23.266;2023-03-19T03:08:49;95957.88;;;0.61;72.87
10652;BME280;5374;42.742;23.266;2023-03-19T03:11:36;96009.44;;;0.90;72.76
10652;BME280;5374;42.742;23.266;2023-03-19T03:14:25;96012.22;;;0.89;72.81
10652;BME280;5374;42.742;23.266;2023-03-19T03:17:14;95972.56;;;0.62;72.80
10652;BME280;5374;42.742;23.266;2023-03-19T03:20:01;96004.94;;;0.76;72.71
10652;BME280;5374;42.742;23.266;2023-03-19T03:22:48;95991.31;;;0.66;72.96
10652;BME280;5374;42.742;23.266;2023-03-19T03:25:36;96002.69;;;0.73;72.71
10652;BME280;5374;42.742;23.266;2023-03-19T03:28:23;96016.69;;;0.80;73.11
10652;BME280;5374;42.742;23.266;2023-03-19T03:31:10;96003.19;;;0.68;73.22
10652;BME280;5374;42.742;23.266;2023-03-19T03:33:59;96011.81;;;0.77;73.23
10652;BME280;5374;42.742;23.266;2023-03-19T03:36:47;96017.19;;;0.76;73.33
10652;BME280;5374;42.742;23.266;2023-03-19T03:39:34;95990.91;;;0.54;73.22
10652;BME280;5374;42.742;23.266;2023-03-19T03:42:22;96015.75;;;0.73;73.39
10652;BME280;5374;42.742;23.266;2023-03-19T03:45:10;96014.03;;;0.65;73.63
10652;BME280;5374;42.742;23.266;2023-03-19T03:47:57;96018.06;;;0.68;73.53
10652;BME280;5374;42.742;23.266;2023-03-19T03:50:46;96003.97;;;0.54;73.80
10652;BME280;5374;42.742;23.266;2023-03-19T03:53:33;96022.03;;;0.64;74.36
10652;BME280;5374;42.742;23.266;2023-03-19T03:56:21;96010.97;;;0.54;74.31
10652;BME280;5374;42.742;23.266;2023-03-19T03:59:08;95998.97;;;0.45;74.31
10652;BME280;5374;42.742;23.266;2023-03-19T04:01:56;96028.25;;;0.63;74.57
10652;BME280;5374;42.742;23.266;2023-03-19T04:04:43;96014.72;;;0.59;75.15
10652;BME280;5374;42.742;23.266;2023-03-19T04:07:32;96017.66;;;0.56;75.10
10652;BME280;5374;42.742;23.266;2023-03-19T04:10:19;95996.34;;;0.45;75.23
10652;BME280;5374;42.742;23.266;2023-03-19T04:13:06;96017.66;;;0.56;75.35
10652;BME280;5374;42.742;23.266;2023-03-19T04:15:54;96011.09;;;0.60;75.64
10652;BME280;5374;42.742;23.266;2023-03-19T04:18:41;96018.31;;;0.58;75.46
10652;BME280;5374;42.742;23.266;2023-03-19T04:21:28;96009.81;;;0.56;75.83
10652;BME280;5374;42.742;23.266;2023-03-19T04:24:17;96009.00;;;0.56;76.04
10652;BME280;5374;42.742;23.266;2023-03-19T04:27:04;96022.72;;;0.58;75.79
10652;BME280;5374;42.742;23.266;2023-03-19T04:29:52;95925.81;;;-0.01;75.60
10652;BME280;5374;42.742;23.266;2023-03-19T04:32:40;95984.97;;;0.38;75.87
10652;BME280;5374;42.742;23.266;2023-03-19T04:35:29;95989.38;;;0.37;76.50
10652;BME280;5374;42.742;23.266;2023-03-19T04:38:16;96009.88;;;0.48;76.66
10652;BME280;5374;42.742;23.266;2023-03-19T04:41:04;96012.94;;;0.52;76.58
10652;BME280;5374;42.742;23.266;2023-03-19T04:43:51;95998.16;;;0.44;76.66
10652;BME280;5374;42.742;23.266;2023-03-19T04:46:39;96002.03;;;0.48;76.58
10652;BME280;5374;42.742;23.266;2023-03-19T04:49:26;96024.47;;;0.65;76.76
10652;BME280;5374;42.742;23.266;2023-03-19T04:52:13;96024.47;;;0.65;76.29
10652;BME280;5374;42.742;23.266;2023-03-19T04:55:00;96021.31;;;0.70;75.98
10652;BME280;5374;42.742;23.266;2023-03-19T04:57:49;96028.41;;;0.84;75.86
10652;BME280;5374;42.742;23.266;2023-03-19T05:00:36;96037.00;;;0.93;75.76
10652;BME280;5374;42.742;23.266;2023-03-19T05:03:23;96034.34;;;1.01;75.39
10652;BME280;5374;42.742;23.266;2023-03-19T05:06:11;96032.00;;;1.06;75.27
10652;BME280;5374;42.742;23.266;2023-03-19T05:08:59;96026.44;;;1.09;74.97
10652;BME280;5374;42.742;23.266;2023-03-19T05:11:46;96016.22;;;1.14;75.17
10652;BME280;5374;42.742;23.266;2023-03-19T05:14:34;96024.19;;;1.21;74.68
10652;BME280;5374;42.742;23.266;2023-03-19T05:17:22;96036.59;;;1.42;74.50
10652;BME280;5374;42.742;23.266;2023-03-19T05:20:10;96036.59;;;1.42;73.99
10652;BME280;5374;42.742;23.266;2023-03-19T05:22:57;96038.25;;;1.57;73.83
10652;BME280;5374;42.742;23.266;2023-03-19T05:25:45;96046.13;;;1.72;72.88
10652;BME280;5374;42.742;23.266;2023-03-19T05:28:32;96033.88;;;3.38;71.65
10652;BME280;5374;42.742;23.266;2023-03-19T05:31:20;96043.25;;;8.17;56.59
10652;BME280;5374;42.742;23.266;2023-03-19T05:34:08;96012.75;;;12.32;44.83
10652;BME280;5374;42.742;23.266;2023-03-19T05:36:55;96029.63;;;15.91;36.96
10652;BME280;5374;42.742;23.266;2023-03-19T05:39:42;96026.97;;;18.76;31.06
10652;BME280;5374;42.742;23.266;2023-03-19T05:42:29;96034.69;;;21.21;28.04
10652;BME280;5374;42.742;23.266;2023-03-19T05:45:17;96055.78;;;23.19;25.66
10652;BME280;5374;42.742;23.266;2023-03-19T05:48:06;96052.59;;;24.73;23.19
10652;BME280;5374;42.742;23.266;2023-03-19T05:50:53;96050.84;;;26.15;21.70
10652;BME280;5374;42.742;23.266;2023-03-19T05:53:41;96070.53;;;27.60;20.24
10652;BME280;5374;42.742;23.266;2023-03-19T05:56:28;96067.53;;;28.73;18.90
10652;BME280;5374;42.742;23.266;2023-03-19T05:59:16;96064.13;;;29.39;17.63
10652;BME280;5374;42.742;23.266;2023-03-19T06:02:03;96063.25;;;30.02;17.46
10652;BME280;5374;42.742;23.266;2023-03-19T06:04:52;96046.22;;;30.70;17.00
10652;BME280;5374;42.742;23.266;2023-03-19T06:07:39;96013.41;;;31.75;16.17
10652;BME280;5374;42.742;23.266;2023-03-19T06:10:26;96019.34;;;32.74;15.62
10652;BME280;5374;42.742;23.266;2023-03-19T06:13:13;96018.53;;;33.73;15.00
10652;BME280;5374;42.742;23.266;2023-03-19T06:16:00;96022.72;;;34.21;14.39
10652;BME280;5374;42.742;23.266;2023-03-19T06:18:47;96013.09;;;35.09;14.31
10652;BME280;5374;42.742;23.266;2023-03-19T06:21:36;96015.44;;;35.60;13.54
10652;BME280;5374;42.742;23.266;2023-03-19T06:24:23;96024.09;;;35.87;13.65
10652;BME280;5374;42.742;23.266;2023-03-19T06:27:11;96017.41;;;36.76;13.18
10652;BME280;5374;42.742;23.266;2023-03-19T06:29:58;96020.09;;;36.86;12.24
10652;BME280;5374;42.742;23.266;2023-03-19T06:32:45;96018.09;;;37.42;12.35
10652;BME280;5374;42.742;23.266;2023-03-19T06:35:32;95990.28;;;37.90;12.66
10652;BME280;5374;42.742;23.266;2023-03-19T06:38:21;96016.59;;;37.75;12.48
10652;BME280;5374;42.742;23.266;2023-03-19T06:41:08;96023.25;;;38.19;12.13
10652;BME280;5374;42.742;23.266;2023-03-19T06:43:55;96025.41;;;38.38;12.18
10652;BME280;5374;42.742;23.266;2023-03-19T06:46:42;96022.38;;;38.25;12.00
10652;BME280;5374;42.742;23.266;2023-03-19T06:49:29;96027.03;;;37.98;11.97
10652;BME280;5374;42.742;23.266;2023-03-19T06:52:17;96033.28;;;37.27;12.61
10652;BME280;5374;42.742;23.266;2023-03-19T06:55:06;96040.88;;;36.46;12.64
10652;BME280;5374;42.742;23.266;2023-03-19T06:57:53;96029.66;;;35.09;14.08
10652;BME280;5374;42.742;23.266;2023-03-19T07:00:41;96038.75;;;32.92;14.80
10652;BME280;5374;42.742;23.266;2023-03-19T07:03:28;96037.38;;;30.80;16.23
10652;BME280;5374;42.742;23.266;2023-03-19T07:06:15;96035.94;;;28.88;17.29
10652;BME280;5374;42.742;23.266;2023-03-19T07:09:03;96036.22;;;26.98;19.05
10652;BME280;5374;42.742;23.266;2023-03-19T07:11:51;96021.66;;;25.53;20.22
10652;BME280;5374;42.742;23.266;2023-03-19T07:14:38;96038.81;;;23.62;22.23
10652;BME280;5374;42.742;23.266;2023-03-19T07:17:26;96031.94;;;22.60;22.98
10652;BME280;5374;42.742;23.266;2023-03-19T07:20:13;96029.75;;;21.72;24.06
10652;BME280;5374;42.742;23.266;2023-03-19T07:23:01;96030.75;;;21.13;25.06
10652;BME280;5374;42.742;23.266;2023-03-19T07:25:48;96026.84;;;20.51;26.03
10652;BME280;5374;42.742;23.266;2023-03-19T07:28:37;96035.63;;;18.97;28.06
10652;BME280;5374;42.742;23.266;2023-03-19T07:31:24;96029.44;;;18.44;28.10
10652;BME280;5374;42.742;23.266;2023-03-19T07:34:11;96035.56;;;17.92;28.79
10652;BME280;5374;42.742;23.266;2023-03-19T07:36:58;96013.97;;;17.24;30.36
10652;BME280;5374;42.742;23.266;2023-03-19T07:39:46;96035.00;;;17.06;30.39
10652;BME280;5374;42.742;23.266;2023-03-19T07:42:33;96016.69;;;16.44;31.21
10652;BME280;5374;42.742;23.266;2023-03-19T07:45:22;96025.81;;;16.33;31.03
10652;BME280;5374;42.742;23.266;2023-03-19T07:48:09;96010.34;;;15.84;33.09
10652;BME280;5374;42.742;23.266;2023-03-19T07:50:57;96025.63;;;15.73;32.46
10652;BME280;5374;42.742;23.266;2023-03-19T07:53:44;96026.03;;;15.20;33.65
10652;BME280;5374;42.742;23.266;2023-03-19T07:56:31;96023.56;;;14.98;34.73
10652;BME280;5374;42.742;23.266;2023-03-19T07:59:19;96014.09;;;14.70;35.21
10652;BME280;5374;42.742;23.266;2023-03-19T08:02:10;96026.47;;;14.91;34.45
10652;BME280;5374;42.742;23.266;2023-03-19T08:04:58;96025.41;;;14.82;34.89
10652;BME280;5374;42.742;23.266;2023-03-19T08:07:47;96028.81;;;14.67;35.49
10652;BME280;5374;42.742;23.266;2023-03-19T08:10:35;96007.84;;;14.49;34.25
10652;BME280;5374;42.742;23.266;2023-03-19T08:13:22;96027.44;;;14.60;34.72
10652;BME280;5374;42.742;23.266;2023-03-19T08:16:10;96026.06;;;14.52;33.96
10652;BME280;5374;42.742;23.266;2023-03-19T08:18:59;96012.66;;;14.47;34.22
10652;BME280;5374;42.742;23.266;2023-03-19T08:21:46;96026.81;;;14.43;35.30
10652;BME280;5374;42.742;23.266;2023-03-19T08:24:34;96025.81;;;14.59;35.42
10652;BME280;5374;42.742;23.266;2023-03-19T08:27:21;96021.59;;;14.73;35.53
10652;BME280;5374;42.742;23.266;2023-03-19T08:30:10;96025.38;;;14.77;35.42
10652;BME280;5374;42.742;23.266;2023-03-19T08:32:58;96026.75;;;14.85;34.56
10652;BME280;5374;42.742;23.266;2023-03-19T08:35:46;96013.03;;;14.71;36.07
10652;BME280;5374;42.742;23.266;2023-03-19T08:38:34;96013.16;;;13.97;37.07
10652;BME280;5374;42.742;23.266;2023-03-19T08:41:21;96012.50;;;13.85;36.39
10652;BME280;5374;42.742;23.266;2023-03-19T08:44:09;95998.19;;;14.01;39.81
10652;BME280;5374;42.742;23.266;2023-03-19T08:46:56;96006.31;;;14.16;37.54
10652;BME280;5374;42.742;23.266;2023-03-19T08:49:43;96010.66;;;14.27;35.59
10652;BME280;5374;42.742;23.266;2023-03-19T08:52:32;95991.66;;;14.24;35.28
10652;BME280;5374;42.742;23.266;2023-03-19T08:55:19;95994.75;;;14.48;36.71
10652;BME280;5374;42.742;23.266;2023-03-19T08:58:06;95990.00;;;14.60;35.99
10652;BME280;5374;42.742;23.266;2023-03-19T09:00:59;95925.44;;;14.31;36.66
10652;BME280;5374;42.742;23.266;2023-03-19T09:03:47;95972.38;;;14.69;36.50
10652;BME280;5374;42.742;23.266;2023-03-19T09:06:34;95984.22;;;14.83;34.90
10652;BME280;5374;42.742;23.266;2023-03-19T09:09:23;95978.34;;;14.91;34.10
10652;BME280;5374;42.742;23.266;2023-03-19T09:12:12;95968.22;;;15.14;34.38
10652;BME280;5374;42.742;23.266;2023-03-19T09:15:00;95965.59;;;15.34;34.55
10652;BME280;5374;42.742;23.266;2023-03-19T09:17:48;95958.63;;;15.23;35.36
10652;BME280;5374;42.742;23.266;2023-03-19T09:20:35;95962.91;;;15.24;34.78
10652;BME280;5374;42.742;23.266;2023-03-19T09:23:22;95962.91;;;15.29;34.92
10652;BME280;5374;42.742;23.266;2023-03-19T09:26:11;95956.75;;;15.28;34.47
10652;BME280;5374;42.742;23.266;2023-03-19T09:28:58;95956.22;;;15.36;36.43
10652;BME280;5374;42.742;23.266;2023-03-19T09:31:45;95942.59;;;15.28;33.13
10652;BME280;5374;42.742;23.266;2023-03-19T09:34:33;95937.25;;;15.33;33.72
10652;BME280;5374;42.742;23.266;2023-03-19T09:37:20;95937.78;;;15.30;32.65
10652;BME280;5374;42.742;23.266;2023-03-19T09:40:14;95945.28;;;15.53;33.63
10652;BME280;5374;42.742;23.266;2023-03-19T09:43:26;95933.22;;;15.61;32.70
10652;BME280;5374;42.742;23.266;2023-03-19T09:46:21;95941.50;;;15.49;32.36
10652;BME280;5374;42.742;23.266;2023-03-19T09:49:14;95930.81;;;15.44;31.72
10652;BME280;5374;42.742;23.266;2023-03-19T09:52:11;95937.69;;;14.79;32.71
10652;BME280;5374;42.742;23.266;2023-03-19T09:55:12;95934.00;;;15.16;34.03
10652;BME280;5374;42.742;23.266;2023-03-19T09:58:11;95932.41;;;15.20;32.61
10652;BME280;5374;42.742;23.266;2023-03-19T10:01:00;95932.41;;;15.30;32.59
10652;BME280;5374;42.742;23.266;2023-03-19T10:03:59;95935.91;;;15.51;32.74
10652;BME280;5374;42.742;23.266;2023-03-19T10:06:52;95926.53;;;15.63;31.31
10652;BME280;5374;42.742;23.266;2023-03-19T10:09:55;95922.78;;;15.69;30.59
10652;BME280;5374;42.742;23.266;2023-03-19T10:12:54;95918.47;;;15.89;30.13
10652;BME280;5374;42.742;23.266;2023-03-19T10:15:44;95914.72;;;16.00;30.75
10652;BME280;5374;42.742;23.266;2023-03-19T10:18:34;95906.88;;;16.14;31.48
10652;BME280;5374;42.742;23.266;2023-03-19T10:21:27;95899.66;;;16.19;30.27
10652;BME280;5374;42.742;23.266;2023-03-19T10:24:21;95891.66;;;16.04;31.72
10652;BME280;5374;42.742;23.266;2023-03-19T10:27:12;95891.06;;;16.17;32.25
10652;BME280;5374;42.742;23.266;2023-03-19T10:30:00;95889.50;;;16.06;30.67
10652;BME280;5374;42.742;23.266;2023-03-19T10:32:52;95881.41;;;16.21;32.43
10652;BME280;5374;42.742;23.266;2023-03-19T10:35:42;95877.31;;;16.39;31.24
10652;BME280;5374;42.742;23.266;2023-03-19T10:38:30;95848.94;;;16.33;30.72
10652;BME280;5374;42.742;23.266;2023-03-19T10:41:25;95865.75;;;16.49;30.32
10652;BME280;5374;42.742;23.266;2023-03-19T10:44:24;95852.41;;;16.33;31.10
10652;BME280;5374;42.742;23.266;2023-03-19T10:47:15;95853.50;;;16.27;30.99
10652;BME280;5374;42.742;23.266;2023-03-19T10:50:06;95840.41;;;16.21;31.17
10652;BME280;5374;42.742;23.266;2023-03-19T10:53:02;95839.50;;;16.46;31.52
10652;BME280;5374;42.742;23.266;2023-03-19T10:55:53;95838.94;;;16.49;31.51
10652;BME280;5374;42.742;23.266;2023-03-19T10:58:55;95822.09;;;16.43;30.11
10652;BME280;5374;42.742;23.266;2023-03-19T11:01:43;95827.09;;;16.55;29.95
10652;BME280;5374;42.742;23.266;2023-03-19T11:04:30;95821.72;;;16.60;31.06
10652;BME280;5374;42.742;23.266;2023-03-19T11:07:19;95814.72;;;16.69;32.46
10652;BME280;5374;42.742;23.266;2023-03-19T11:10:12;95811.63;;;16.86;30.83
10652;BME280;5374;42.742;23.266;2023-03-19T11:13:04;95807.50;;;16.98;32.85
10652;BME280;5374;42.742;23.266;2023-03-19T11:15:52;95803.94;;;17.08;32.46
10652;BME280;5374;42.742;23.266;2023-03-19T11:18:40;95786.00;;;17.03;30.33
10652;BME280;5374;42.742;23.266;2023-03-19T11:21:29;95794.16;;;17.22;30.39
10652;BME280;5374;42.742;23.266;2023-03-19T11:24:19;95792.31;;;16.89;30.04
10652;BME280;5374;42.742;23.266;2023-03-19T11:27:07;95779.59;;;16.99;31.05
10652;BME280;5374;42.742;23.266;2023-03-19T11:29:56;95783.53;;;17.12;30.33
10652;BME280;5374;42.742;23.266;2023-03-19T11:33:06;95762.75;;;17.23;30.61
10652;BME280;5374;42.742;23.266;2023-03-19T11:36:00;95766.44;;;17.56;32.19
10652;BME280;5374;42.742;23.266;2023-03-19T11:39:02;95755.94;;;17.59;30.34
10652;BME280;5374;42.742;23.266;2023-03-19T11:42:02;95760.72;;;17.62;30.13
10652;BME280;5374;42.742;23.266;2023-03-19T11:45:03;95743.03;;;17.61;30.74
10652;BME280;5374;42.742;23.266;2023-03-19T11:48:05;95743.03;;;17.61;31.11
10652;BME280;5374;42.742;23.266;2023-03-19T11:51:06;95733.94;;;17.57;31.06
10652;BME280;5374;42.742;23.266;2023-03-19T11:54:02;95741.13;;;17.62;31.77
10652;BME280;5374;42.742;23.266;2023-03-19T11:56:57;95726.44;;;17.54;30.08
10652;BME280;5374;42.742;23.266;2023-03-19T12:00:06;95726.97;;;17.56;29.94
10652;BME280;5374;42.742;23.266;2023-03-19T12:03:28;95725.66;;;17.54;29.86
10652;BME280;5374;42.742;23.266;2023-03-19T12:06:24;95713.34;;;17.48;30.45
10652;BME280;5374;42.742;23.266;2023-03-19T12:09:21;95700.28;;;17.41;30.60
10652;BME280;5374;42.742;23.266;2023-03-19T12:12:18;95711.41;;;17.53;30.05
10652;BME280;5374;42.742;23.266;2023-03-19T12:15:15;95714.63;;;17.55;30.20
10652;BME280;5374;42.742;23.266;2023-03-19T12:18:12;95704.72;;;17.03;31.46
10652;BME280;5374;42.742;23.266;2023-03-19T12:21:07;95705.94;;;16.87;31.86
10652;BME280;5374;42.742;23.266;2023-03-19T12:24:02;95687.09;;;16.68;31.54
10652;BME280;5374;42.742;23.266;2023-03-19T12:26:59;95708.25;;;16.98;30.83
10652;BME280;5374;42.742;23.266;2023-03-19T12:29:56;95704.84;;;17.17;30.69
10652;BME280;5374;42.742;23.266;2023-03-19T12:32:56;95686.34;;;17.39;30.62
10652;BME280;5374;42.742;23.266;2023-03-19T12:35:49;95688.84;;;17.54;30.74
10652;BME280;5374;42.742;23.266;2023-03-19T12:38:39;95690.59;;;17.64;30.06
10652;BME280;5374;42.742;23.266;2023-03-19T12:41:28;95683.09;;;17.66;30.94
10652;BME280;5374;42.742;23.266;2023-03-19T12:44:21;95666.72;;;17.62;30.77
10652;BME280;5374;42.742;23.266;2023-03-19T12:47:14;95682.28;;;17.65;31.36
10652;BME280;5374;42.742;23.266;2023-03-19T12:50:06;95675.84;;;17.85;30.42
10652;BME280;5374;42.742;23.266;2023-03-19T12:52:56;95673.66;;;17.68;30.71
10652;BME280;5374;42.742;23.266;2023-03-19T12:55:49;95666.00;;;17.81;30.23
10652;BME280;5374;42.742;23.266;2023-03-19T12:58:49;95667.94;;;17.27;31.23
10652;BME280;5374;42.742;23.266;2023-03-19T13:01:40;95664.25;;;17.23;31.36
10652;BME280;5374;42.742;23.266;2023-03-19T13:04:34;95653.53;;;17.42;30.76
10652;BME280;5374;42.742;23.266;2023-03-19T13:07:28;95627.72;;;17.46;31.51
10652;BME280;5374;42.742;23.266;2023-03-19T13:10:19;95650.84;;;17.66;31.43
10652;BME280;5374;42.742;23.266;2023-03-19T13:13:20;95641.25;;;17.84;30.91
10652;BME280;5374;42.742;23.266;2023-03-19T13:16:22;95636.66;;;17.84;31.17
10652;BME280;5374;42.742;23.266;2023-03-19T13:19:20;95641.25;;;17.84;31.10
10652;BME280;5374;42.742;23.266;2023-03-19T13:22:14;95633.75;;;17.81;30.68
10652;BME280;5374;42.742;23.266;2023-03-19T13:25:04;95632.84;;;17.66;30.46
10652;BME280;5374;42.742;23.266;2023-03-19T13:27:54;95616.97;;;17.70;30.85
10652;BME280;5374;42.742;23.266;2023-03-19T13:30:57;95625.19;;;17.79;30.51
10652;BME280;5374;42.742;23.266;2023-03-19T13:33:50;95631.72;;;17.72;30.15
10652;BME280;5374;42.742;23.266;2023-03-19T13:36:39;95624.50;;;17.68;30.72
10652;BME280;5374;42.742;23.266;2023-03-19T13:39:31;95618.06;;;17.69;31.07
10652;BME280;5374;42.742;23.266;2023-03-19T13:42:34;95623.94;;;17.71;30.84
10652;BME280;5374;42.742;23.266;2023-03-19T13:45:29;95618.44;;;17.81;30.94
10652;BME280;5374;42.742;23.266;2023-03-19T13:48:34;95606.16;;;17.94;31.09
10652;BME280;5374;42.742;23.266;2023-03-19T13:51:25;95612.16;;;17.86;30.68
10652;BME280;5374;42.742;23.266;2023-03-19T13:54:17;95610.88;;;17.83;30.88
10652;BME280;5374;42.742;23.266;2023-03-19T13:57:30;95605.13;;;17.90;30.67
10652;BME280;5374;42.742;23.266;2023-03-19T14:00:53;95606.88;;;17.81;31.04
10652;BME280;5374;42.742;23.266;2023-03-19T14:03:52;95611.06;;;17.87;30.75
10652;BME280;5374;42.742;23.266;2023-03-19T14:06:42;95594.31;;;17.76;31.30
10652;BME280;5374;42.742;23.266;2023-03-19T14:09:36;95592.16;;;17.78;30.95
10652;BME280;5374;42.742;23.266;2023-03-19T14:12:32;95599.13;;;17.79;30.58
10652;BME280;5374;42.742;23.266;2023-03-19T14:15:21;95588.28;;;17.65;31.01
10652;BME280;5374;42.742;23.266;2023-03-19T14:18:12;95595.69;;;17.73;31.12
10652;BME280;5374;42.742;23.266;2023-03-19T14:21:06;95586.09;;;17.67;31.36
10652;BME280;5374;42.742;23.266;2023-03-19T14:23:55;95580.03;;;17.81;31.38
10652;BME280;5374;42.742;23.266;2023-03-19T14:26:45;95586.41;;;17.85;31.20
10652;BME280;5374;42.742;23.266;2023-03-19T14:29:34;95579.63;;;17.87;31.70
10652;BME280;5374;42.742;23.266;2023-03-19T14:32:27;95584.13;;;17.92;31.58
10652;BME280;5374;42.742;23.266;2023-03-19T14:35:18;95575.72;;;17.98;31.47
10652;BME280;5374;42.742;23.266;2023-03-19T14:38:10;95582.50;;;18.09;31.26
10652;BME280;5374;42.742;23.266;2023-03-19T14:41:00;95578.72;;;18.10;31.24
10652;BME280;5374;42.742;23.266;2023-03-19T14:44:09;95579.47;;;18.16;31.11
10652;BME280;5374;42.742;23.266;2023-03-19T14:47:14;95566.19;;;18.06;30.78
10652;BME280;5374;42.742;23.266;2023-03-19T14:50:29;95574.75;;;18.08;30.79
10652;BME280;5374;42.742;23.266;2023-03-19T14:53:23;95565.78;;;17.99;31.39
10652;BME280;5374;42.742;23.266;2023-03-19T14:56:15;95575.94;;;18.02;31.52
10652;BME280;5374;42.742;23.266;2023-03-19T14:59:02;95571.16;;;17.99;31.44
10652;BME280;5374;42.742;23.266;2023-03-19T15:01:52;95569.09;;;17.91;31.67
10652;BME280;5374;42.742;23.266;2023-03-19T15:04:43;95572.47;;;17.83;31.82
10652;BME280;5374;42.742;23.266;2023-03-19T15:07:33;95570.38;;;17.80;31.50